LWSK/SKP METAR and TAF weather

Enter ICAO airport designator
Station Type Date Time Source
LWSK METAR 2022/01/26 07:30 UTC NOAA

LWSK 260730Z 32003KT 9999 SCT042 BKN073 M04/M09 Q1028 NOSIG


Station Type Date Time Source
LWSK Decoded METAR 2022/01/26 07:30 UTC NOAA

Skopje-Petrovec, Macedonia, The Republic of (LWSK) 41-58N 021-39E 239M
Jan 26, 2022 - 02:30 AM EST / 2022.01.26 0730 UTC
Wind: from the NW (320 degrees) at 3 MPH (3 KT):0
Visibility: greater than 7 mile(s):0
Sky conditions: mostly cloudy
Temperature: 24 F (-4 C)
Dew Point: 15 F (-9 C)
Relative Humidity: 68%
Pressure (altimeter): 30.36 in. Hg (1028 hPa)
ob: LWSK 260730Z 32003KT 9999 SCT042 BKN073 M04/M09 Q1028 NOSIG
cycle: 7

Station Type Date Time Source
LWSK TAF 2022/01/26 06:33 UTC NOAA

TAF LWSK 260530Z 2606/2706 VRB02KT 9999 BKN070
TEMPO 2606/2618 36012KT
BECMG 2618/2620 SCT025 BKN040

Example: see airport list